John_paul K — PBHY — position and weather

sailwx.info

Track history (hours):
 
Tides and Currents Weather Stations Pressure Air Temp Water Temp Dewpoint Dewpoint Depression Visibility Wind Speed Wind Dir Waves Ship Positions

John_paul K

Last reported at 2016-Jun-29 00:19 UTC. Time now 2016-Jun-30 03:26 UTC.
Position N 36°49' W 009°32'.

Length 90 m; draft 6.4 m.

Type: Cargo ship. MMSI: 245181000.

Date/timePositionNaut miles runAvg speedWind from/ knotsBaromVisibWave heightAir tempDewpointWater temp
2016-Jun-29 00:19N 36°49' W 009°32'9 8.8
2016-Jun-28 23:21N 36°58' W 009°35'18 9.1
2016-Jun-28 21:24N 37°15' W 009°40'8 9.1
2016-Jun-28 20:32N 37°22' W 009°42'9 9.2
2016-Jun-28 19:33N 37°31' W 009°44'9 9.3
2016-Jun-28 18:33N 37°40' W 009°47'9 9.4
2016-Jun-28 17:32N 37°50' W 009°49'9 9.3
2016-Jun-28 16:33N 37°59' W 009°52'9 9.4
2016-Jun-28 15:33N 38°08' W 009°55'19 9.2
2016-Jun-28 13:31N 38°26' W 010°00'45 9.0
2016-Jun-28 08:30N 39°11' W 010°06'  
2016-Jun-24 23:33N 49°47' W 003°22'7 7.4
2016-Jun-24 22:33N 49°51' W 003°12'7 6.8
2016-Jun-24 21:32N 49°54' W 003°03'7 6.8
2016-Jun-24 20:33N 49°58' W 002°54'114 8.7
2016-Jun-24 07:27N 50°31' W 000°04'910.2
2016-Jun-24 06:32N 50°34' E 000°10'2210.2
2016-Jun-24 04:24N 50°42' E 000°42'38 7.8
2016-Jun-23 23:33N 51°05' E 001°29'1110.9
2016-Jun-23 22:33N 51°12' E 001°43'1111.4
2016-Jun-23 21:33N 51°21' E 001°55'8 8.4
2016-Jun-23 20:33N 51°23' E 002°08'10 9.4
2016-Jun-23 19:29N 51°22' E 002°24'9 9.8
2016-Jun-23 18:33N 51°23' E 002°39'10 9.9
2016-Jun-23 17:33N 51°22' E 002°55'1010.4
2016-Jun-23 16:33N 51°23' E 003°11'10 9.9
2016-Jun-23 15:33N 51°24' E 003°27'9 8.7
2016-Jun-23 14:33N 51°25' E 003°41'7 7.2
2016-Jun-23 13:33N 51°20' E 003°49'1 1.4
2016-Jun-23 12:34N 51°18' E 003°50'7 7.2
2016-Jun-23 11:34N 51°11' E 003°48'2 1.5
2016-Jun-23 10:31N 51°10' E 003°47'0 0.0
2016-Jun-23 09:31N 51°10' E 003°47'0 0.0
2016-Jun-23 08:31N 51°10' E 003°47'0 0.0
2016-Jun-23 07:31N 51°10' E 003°47'0 0.0
2016-Jun-23 05:31N 51°10' E 003°47'0 0.0
2016-Jun-23 04:28N 51°10' E 003°47'0 0.0
2016-Jun-23 03:28N 51°10' E 003°47'0 0.0
2016-Jun-23 02:31N 51°10' E 003°47'0 0.0
2016-Jun-23 01:31N 51°10' E 003°47'0 0.0
2016-Jun-23 00:34N 51°10' E 003°47'0 0.0
2016-Jun-22 23:33N 51°10' E 003°47'0 0.0
2016-Jun-22 22:32N 51°10' E 003°47'0 0.0
2016-Jun-22 21:32N 51°10' E 003°47'0 0.0
2016-Jun-22 20:32N 51°10' E 003°47'0 0.0
2016-Jun-22 19:32N 51°10' E 003°47'0 0.0
2016-Jun-22 18:29N 51°10' E 003°47'0 0.0
2016-Jun-22 17:32N 51°10' E 003°47'0 0.0
2016-Jun-22 16:32N 51°10' E 003°47'0 0.0
2016-Jun-22 15:32N 51°10' E 003°47'0 0.0
2016-Jun-22 14:32N 51°10' E 003°47'0 0.0
2016-Jun-22 13:32N 51°10' E 003°47'0 0.0
2016-Jun-22 12:26N 51°10' E 003°47'0 0.0
2016-Jun-22 11:33N 51°10' E 003°47'0 0.0
2016-Jun-22 10:31N 51°10' E 003°47'0 0.0
2016-Jun-22 09:31N 51°10' E 003°47'0 0.0
2016-Jun-22 08:31N 51°10' E 003°47'0 0.0
2016-Jun-22 07:31N 51°10' E 003°47'0 0.0
2016-Jun-22 06:31N 51°10' E 003°47'0 0.0
2016-Jun-22 05:31N 51°10' E 003°47'0 0.0
2016-Jun-22 04:31N 51°10' E 003°47'0 0.0
2016-Jun-22 03:31N 51°10' E 003°47'0 0.0
2016-Jun-22 02:31N 51°10' E 003°47'0 0.0
2016-Jun-22 01:31N 51°10' E 003°47'0 0.0
2016-Jun-22 00:31N 51°10' E 003°47'0 0.0
2016-Jun-21 23:31N 51°10' E 003°47'0 0.0
2016-Jun-21 22:31N 51°10' E 003°47'0 0.0
2016-Jun-21 21:31N 51°10' E 003°47'0 0.0
2016-Jun-21 20:30N 51°10' E 003°47'0 0.0
2016-Jun-21 19:30N 51°10' E 003°47'0 0.0
2016-Jun-21 18:33N 51°10' E 003°47'0 0.0
2016-Jun-21 17:30N 51°10' E 003°47'0 0.0
2016-Jun-21 16:33N 51°10' E 003°47'0 0.0
2016-Jun-21 15:30N 51°10' E 003°47'0 0.0
2016-Jun-21 14:30N 51°10' E 003°47'0 0.0
2016-Jun-21 13:33N 51°10' E 003°47'0 0.0
2016-Jun-21 12:33N 51°10' E 003°47'0 0.0
2016-Jun-21 11:33N 51°10' E 003°47'0 0.0
2016-Jun-21 10:33N 51°10' E 003°47'0 0.0
2016-Jun-21 09:33N 51°10' E 003°47'0 0.0
2016-Jun-21 08:30N 51°10' E 003°47'0 0.0
2016-Jun-21 07:33N 51°10' E 003°47'0 0.0
2016-Jun-21 06:30N 51°10' E 003°47'0 0.0
2016-Jun-21 04:33N 51°10' E 003°47'0 0.0
2016-Jun-21 03:33N 51°10' E 003°47'0 0.0
2016-Jun-21 02:33N 51°10' E 003°47'0 0.0
2016-Jun-21 01:33N 51°10' E 003°47'1 0.5
2016-Jun-21 00:34N 51°10' E 003°48'8 7.9
2016-Jun-20 23:33N 51°18' E 003°50'3 2.6
2016-Jun-20 22:33N 51°21' E 003°49'8 8.0
2016-Jun-20 21:34N 51°25' E 003°38'1211.7
2016-Jun-20 20:33N 51°33' E 003°25'130 5.4
2016-Jun-19 20:29N 53°35' E 004°39'8 8.8
2016-Jun-19 19:34N 53°43' E 004°44'9 8.8
2016-Jun-19 18:32N 53°51' E 004°50'9 8.9
2016-Jun-19 17:32N 53°60' E 004°56'9 9.2
2016-Jun-19 16:33N 54°08' E 005°02'9 9.4
2016-Jun-19 15:32N 54°16' E 005°09'  
Track history (hours):
 
Tides and Currents Weather Stations Pressure Air Temp Water Temp Dewpoint Dewpoint Depression Visibility Wind Speed Wind Dir Waves Ship Positions

John_paul K

Last reported at 2016-Jun-29 00:19 UTC. Time now 2016-Jun-30 03:26 UTC.
Position N 36°49' W 009°32'.

Length 90 m; draft 6.4 m.

Type: Cargo ship. MMSI: 245181000.

Date/timePositionNaut miles runAvg speedWind from/ knotsBaromVisibWave heightAir tempDewpointWater temp
2016-Jun-29 00:19N 36°49' W 009°32'9 8.8
2016-Jun-28 23:21N 36°58' W 009°35'18 9.1
2016-Jun-28 21:24N 37°15' W 009°40'8 9.1
2016-Jun-28 20:32N 37°22' W 009°42'9 9.2
2016-Jun-28 19:33N 37°31' W 009°44'9 9.3
2016-Jun-28 18:33N 37°40' W 009°47'9 9.4
2016-Jun-28 17:32N 37°50' W 009°49'9 9.3
2016-Jun-28 16:33N 37°59' W 009°52'9 9.4
2016-Jun-28 15:33N 38°08' W 009°55'19 9.2
2016-Jun-28 13:31N 38°26' W 010°00'45 9.0
2016-Jun-28 08:30N 39°11' W 010°06'  
2016-Jun-24 23:33N 49°47' W 003°22'7 7.4
2016-Jun-24 22:33N 49°51' W 003°12'7 6.8
2016-Jun-24 21:32N 49°54' W 003°03'7 6.8
2016-Jun-24 20:33N 49°58' W 002°54'114 8.7
2016-Jun-24 07:27N 50°31' W 000°04'910.2
2016-Jun-24 06:32N 50°34' E 000°10'2210.2
2016-Jun-24 04:24N 50°42' E 000°42'38 7.8
2016-Jun-23 23:33N 51°05' E 001°29'1110.9
2016-Jun-23 22:33N 51°12' E 001°43'1111.4
2016-Jun-23 21:33N 51°21' E 001°55'8 8.4
2016-Jun-23 20:33N 51°23' E 002°08'10 9.4
2016-Jun-23 19:29N 51°22' E 002°24'9 9.8
2016-Jun-23 18:33N 51°23' E 002°39'10 9.9
2016-Jun-23 17:33N 51°22' E 002°55'1010.4
2016-Jun-23 16:33N 51°23' E 003°11'10 9.9
2016-Jun-23 15:33N 51°24' E 003°27'9 8.7
2016-Jun-23 14:33N 51°25' E 003°41'7 7.2
2016-Jun-23 13:33N 51°20' E 003°49'1 1.4
2016-Jun-23 12:34N 51°18' E 003°50'7 7.2
2016-Jun-23 11:34N 51°11' E 003°48'2 1.5
2016-Jun-23 10:31N 51°10' E 003°47'0 0.0
2016-Jun-23 09:31N 51°10' E 003°47'0 0.0
2016-Jun-23 08:31N 51°10' E 003°47'0 0.0
2016-Jun-23 07:31N 51°10' E 003°47'0 0.0
2016-Jun-23 05:31N 51°10' E 003°47'0 0.0
2016-Jun-23 04:28N 51°10' E 003°47'0 0.0
2016-Jun-23 03:28N 51°10' E 003°47'0 0.0
2016-Jun-23 02:31N 51°10' E 003°47'0 0.0
2016-Jun-23 01:31N 51°10' E 003°47'0 0.0
2016-Jun-23 00:34N 51°10' E 003°47'0 0.0
2016-Jun-22 23:33N 51°10' E 003°47'0 0.0
2016-Jun-22 22:32N 51°10' E 003°47'0 0.0
2016-Jun-22 21:32N 51°10' E 003°47'0 0.0
2016-Jun-22 20:32N 51°10' E 003°47'0 0.0
2016-Jun-22 19:32N 51°10' E 003°47'0 0.0
2016-Jun-22 18:29N 51°10' E 003°47'0 0.0
2016-Jun-22 17:32N 51°10' E 003°47'0 0.0
2016-Jun-22 16:32N 51°10' E 003°47'0 0.0
2016-Jun-22 15:32N 51°10' E 003°47'0 0.0
2016-Jun-22 14:32N 51°10' E 003°47'0 0.0
2016-Jun-22 13:32N 51°10' E 003°47'0 0.0
2016-Jun-22 12:26N 51°10' E 003°47'0 0.0
2016-Jun-22 11:33N 51°10' E 003°47'0 0.0
2016-Jun-22 10:31N 51°10' E 003°47'0 0.0
2016-Jun-22 09:31N 51°10' E 003°47'0 0.0
2016-Jun-22 08:31N 51°10' E 003°47'0 0.0
2016-Jun-22 07:31N 51°10' E 003°47'0 0.0
2016-Jun-22 06:31N 51°10' E 003°47'0 0.0
2016-Jun-22 05:31N 51°10' E 003°47'0 0.0
2016-Jun-22 04:31N 51°10' E 003°47'0 0.0
2016-Jun-22 03:31N 51°10' E 003°47'0 0.0
2016-Jun-22 02:31N 51°10' E 003°47'0 0.0
2016-Jun-22 01:31N 51°10' E 003°47'0 0.0
2016-Jun-22 00:31N 51°10' E 003°47'0 0.0
2016-Jun-21 23:31N 51°10' E 003°47'0 0.0
2016-Jun-21 22:31N 51°10' E 003°47'0 0.0
2016-Jun-21 21:31N 51°10' E 003°47'0 0.0
2016-Jun-21 20:30N 51°10' E 003°47'0 0.0
2016-Jun-21 19:30N 51°10' E 003°47'0 0.0
2016-Jun-21 18:33N 51°10' E 003°47'0 0.0
2016-Jun-21 17:30N 51°10' E 003°47'0 0.0
2016-Jun-21 16:33N 51°10' E 003°47'0 0.0
2016-Jun-21 15:30N 51°10' E 003°47'0 0.0
2016-Jun-21 14:30N 51°10' E 003°47'0 0.0
2016-Jun-21 13:33N 51°10' E 003°47'0 0.0
2016-Jun-21 12:33N 51°10' E 003°47'0 0.0
2016-Jun-21 11:33N 51°10' E 003°47'0 0.0
2016-Jun-21 10:33N 51°10' E 003°47'0 0.0
2016-Jun-21 09:33N 51°10' E 003°47'0 0.0
2016-Jun-21 08:30N 51°10' E 003°47'0 0.0
2016-Jun-21 07:33N 51°10' E 003°47'0 0.0
2016-Jun-21 06:30N 51°10' E 003°47'0 0.0
2016-Jun-21 04:33N 51°10' E 003°47'0 0.0
2016-Jun-21 03:33N 51°10' E 003°47'0 0.0
2016-Jun-21 02:33N 51°10' E 003°47'0 0.0
2016-Jun-21 01:33N 51°10' E 003°47'1 0.5
2016-Jun-21 00:34N 51°10' E 003°48'8 7.9
2016-Jun-20 23:33N 51°18' E 003°50'3 2.6
2016-Jun-20 22:33N 51°21' E 003°49'8 8.0
2016-Jun-20 21:34N 51°25' E 003°38'1211.7
2016-Jun-20 20:33N 51°33' E 003°25'130 5.4
2016-Jun-19 20:29N 53°35' E 004°39'8 8.8
2016-Jun-19 19:34N 53°43' E 004°44'9 8.8
2016-Jun-19 18:32N 53°51' E 004°50'9 8.9
2016-Jun-19 17:32N 53°60' E 004°56'9 9.2
2016-Jun-19 16:33N 54°08' E 005°02'9 9.4
2016-Jun-19 15:32N 54°16' E 005°09'  

Dump ship's entire track history